createdAt,value
2022-08-07T00:01:44.232Z,39.25
2022-08-07T00:04:15.579Z,39.22
2022-08-07T00:06:51.556Z,39.27
2022-08-07T00:09:20.946Z,39.29
2022-08-07T00:11:55.585Z,39.25
2022-08-07T00:14:34.246Z,39.47
2022-08-07T00:17:08.210Z,39.23
2022-08-07T00:20:01.058Z,39.31
2022-08-07T00:22:24.415Z,39.41
2022-08-07T00:25:15.715Z,39.41
2022-08-07T00:27:52.627Z,39.90
2022-08-07T00:30:26.461Z,39.76
2022-08-07T00:32:58.453Z,39.94
2022-08-07T00:35:26.855Z,39.74
2022-08-07T00:37:56.742Z,39.74
2022-08-07T00:40:36.717Z,39.61
2022-08-07T00:43:58.702Z,39.70
2022-08-07T00:46:02.836Z,40.08
2022-08-07T00:48:32.068Z,39.98
2022-08-07T00:51:00.498Z,40.28
2022-08-07T00:53:27.687Z,40.29
2022-08-07T00:56:13.735Z,40.11
2022-08-07T00:58:46.786Z,40.12
2022-08-07T01:01:15.479Z,40.22
2022-08-07T01:03:56.252Z,40.21
2022-08-07T01:06:28.882Z,40.16
2022-08-07T01:09:00.643Z,40.23
2022-08-07T01:12:27.364Z,40.43
2022-08-07T01:14:21.166Z,40.13
2022-08-07T01:16:49.205Z,40.06
2022-08-07T01:19:19.653Z,40.50
2022-08-07T01:21:53.439Z,40.14
2022-08-07T01:24:25.860Z,40.58
2022-08-07T01:26:58.786Z,40.38
2022-08-07T01:29:31.630Z,40.46
2022-08-07T01:32:05.207Z,40.40
2022-08-07T01:34:33.498Z,40.34
2022-08-07T01:37:09.895Z,40.37
2022-08-07T01:39:40.969Z,40.56
2022-08-07T01:42:38.454Z,40.34
2022-08-07T01:45:23.014Z,40.81
2022-08-07T01:48:19.665Z,40.57
2022-08-07T01:50:55.779Z,40.75
2022-08-07T01:54:12.760Z,40.84
2022-08-07T01:56:28.895Z,40.81
2022-08-07T01:59:19.594Z,40.99
2022-08-07T02:02:02.599Z,40.78
2022-08-07T02:04:40.426Z,40.86
2022-08-07T02:07:23.943Z,41.01
2022-08-07T02:10:14.313Z,40.84
2022-08-07T02:12:46.390Z,40.92
2022-08-07T02:15:23.796Z,40.95
2022-08-07T02:17:53.961Z,41.03
2022-08-07T02:20:24.141Z,41.19
2022-08-07T02:23:00.115Z,41.13
2022-08-07T02:26:10.735Z,41.03
2022-08-07T02:28:25.606Z,41.30
2022-08-07T02:30:59.464Z,41.33
2022-08-07T02:34:01.516Z,41.23
2022-08-07T02:36:28.206Z,41.46
2022-08-07T02:38:57.755Z,41.30
2022-08-07T02:41:33.211Z,41.42
2022-08-07T02:44:01.624Z,41.45
2022-08-07T02:46:31.139Z,41.54
2022-08-07T02:48:58.647Z,41.53
2022-08-07T02:51:49.795Z,41.48
2022-08-07T02:54:20.856Z,41.53
2022-08-07T02:56:53.854Z,41.54
2022-08-07T02:59:23.989Z,41.55
2022-08-07T03:01:56.493Z,41.57
2022-08-07T03:04:29.156Z,41.57
2022-08-07T03:06:57.113Z,41.73
2022-08-07T03:09:41.796Z,41.85
2022-08-07T03:12:11.599Z,41.68
2022-08-07T03:14:53.878Z,41.75
2022-08-07T03:17:22.107Z,41.99
2022-08-07T03:19:55.069Z,42.16
2022-08-07T03:22:29.549Z,42.22
2022-08-07T03:25:00.101Z,42.13
2022-08-07T03:27:41.950Z,42.11
2022-08-07T03:30:18.144Z,42.06
2022-08-07T03:32:58.506Z,42.21
2022-08-07T03:35:43.553Z,42.06
2022-08-07T03:38:13.335Z,42.14
2022-08-07T03:40:44.532Z,42.28
2022-08-07T03:43:15.506Z,42.50
2022-08-07T03:45:50.781Z,42.27
2022-08-07T03:48:23.067Z,42.39
2022-08-07T03:50:57.978Z,42.24
2022-08-07T03:53:50.205Z,42.35
2022-08-07T03:56:33.392Z,42.49
2022-08-07T03:59:09.187Z,42.59
2022-08-07T04:01:43.023Z,42.57
2022-08-07T04:04:10.747Z,42.56
2022-08-07T04:06:45.487Z,42.30
2022-08-07T04:09:16.296Z,42.62
2022-08-07T04:12:25.501Z,42.58
2022-08-07T04:14:38.635Z,42.46
2022-08-07T04:17:21.212Z,42.72
2022-08-07T04:19:54.182Z,42.59
2022-08-07T04:22:27.633Z,42.74
2022-08-07T04:25:01.670Z,42.60
2022-08-07T04:27:35.589Z,42.55
2022-08-07T04:30:11.836Z,42.56
2022-08-07T04:32:58.011Z,42.64
2022-08-07T04:35:35.089Z,42.57
2022-08-07T04:38:07.078Z,42.82
2022-08-07T04:40:43.900Z,43.01
2022-08-07T04:44:13.090Z,42.97
2022-08-07T04:46:59.381Z,43.06
2022-08-07T04:49:58.135Z,43.09
2022-08-07T04:52:51.415Z,43.00
2022-08-07T04:58:15.943Z,43.28
2022-08-07T04:59:15.888Z,43.04
2022-08-07T05:02:07.216Z,43.25
2022-08-07T05:04:50.129Z,43.11
2022-08-07T05:08:05.513Z,43.02
2022-08-07T05:10:41.014Z,43.22
2022-08-07T05:14:53.823Z,42.91
2022-08-07T05:16:06.507Z,43.00
2022-08-07T05:18:36.893Z,43.11
2022-08-07T05:21:06.425Z,43.07
2022-08-07T05:23:41.245Z,43.29
2022-08-07T05:26:29.451Z,43.30
2022-08-07T05:29:04.618Z,43.00
2022-08-07T05:31:38.632Z,42.90
2022-08-07T05:34:19.023Z,42.98
2022-08-07T05:36:52.725Z,42.98
2022-08-07T05:40:16.512Z,43.05
2022-08-07T05:42:34.269Z,42.61
2022-08-07T05:45:14.224Z,42.87
2022-08-07T05:48:01.953Z,42.76
2022-08-07T05:50:36.148Z,42.62
2022-08-07T05:53:06.823Z,42.67
2022-08-07T05:56:02.462Z,42.54
2022-08-07T05:58:36.562Z,42.69
2022-08-07T06:01:10.829Z,42.39
2022-08-07T06:03:56.889Z,42.44
2022-08-07T06:06:29.692Z,42.17
2022-08-07T06:09:04.589Z,42.29
2022-08-07T06:11:34.453Z,42.15
2022-08-07T06:14:11.418Z,42.35
2022-08-07T06:16:50.262Z,42.28
2022-08-07T06:19:57.745Z,42.11
2022-08-07T06:22:24.136Z,42.09
2022-08-07T06:25:34.663Z,41.93
2022-08-07T06:28:10.408Z,41.98
2022-08-07T06:30:46.110Z,42.16
2022-08-07T06:33:22.732Z,41.85
2022-08-07T06:36:11.940Z,41.98
2022-08-07T06:38:58.751Z,41.92
2022-08-07T06:42:00.737Z,41.73
2022-08-07T06:44:51.114Z,41.70
2022-08-07T06:47:21.053Z,41.55
2022-08-07T06:49:52.045Z,41.92
2022-08-07T06:52:31.531Z,41.92
2022-08-07T06:55:33.327Z,42.19
2022-08-07T06:58:11.403Z,42.09
2022-08-07T07:00:59.375Z,41.86
2022-08-07T07:03:47.658Z,41.67
2022-08-07T07:06:14.667Z,41.58
2022-08-07T07:08:50.939Z,41.52
2022-08-07T07:12:07.646Z,41.81
2022-08-07T07:14:08.592Z,41.66
2022-08-07T07:16:45.201Z,41.46
2022-08-07T07:19:55.176Z,41.21
2022-08-07T07:22:33.768Z,40.95
2022-08-07T07:25:02.881Z,40.84
2022-08-07T07:27:56.346Z,40.78
2022-08-07T07:30:39.565Z,40.82
2022-08-07T07:33:11.792Z,40.61
2022-08-07T07:35:54.211Z,39.94
2022-08-07T07:38:25.513Z,39.90
2022-08-07T07:41:02.161Z,39.63
2022-08-07T07:44:13.808Z,39.05
2022-08-07T07:46:37.827Z,39.05
2022-08-07T07:50:29.831Z,38.61
2022-08-07T07:51:58.531Z,38.24
2022-08-07T07:54:26.891Z,37.77
2022-08-07T07:56:55.181Z,37.82
2022-08-07T07:59:51.549Z,37.27
2022-08-07T08:02:22.554Z,37.18
2022-08-07T08:05:05.607Z,37.10
2022-08-07T08:07:42.380Z,36.47
2022-08-07T08:10:37.807Z,36.71
2022-08-07T08:13:10.656Z,36.22
2022-08-07T08:15:57.999Z,36.59
2022-08-07T08:18:32.368Z,36.14
2022-08-07T08:21:03.962Z,36.16
2022-08-07T08:24:07.030Z,36.45
2022-08-07T08:27:17.582Z,36.11
2022-08-07T08:29:56.046Z,36.15
2022-08-07T08:32:39.233Z,35.90
2022-08-07T08:35:14.517Z,36.25
2022-08-07T08:38:01.795Z,36.05
2022-08-07T08:40:43.878Z,36.38
2022-08-07T08:43:42.388Z,36.16
2022-08-07T08:46:29.211Z,36.22
2022-08-07T08:49:15.726Z,35.47
2022-08-07T08:52:25.129Z,35.64
2022-08-07T08:55:12.350Z,35.72
2022-08-07T08:58:24.815Z,35.76
2022-08-07T09:01:20.097Z,35.28
2022-08-07T09:04:25.753Z,35.46
2022-08-07T09:07:46.189Z,35.12
2022-08-07T09:10:49.917Z,35.13
2022-08-07T09:14:03.309Z,34.88
2022-08-07T09:16:55.495Z,34.93
2022-08-07T09:19:59.951Z,35.40
2022-08-07T09:24:33.252Z,34.99
2022-08-07T09:26:06.969Z,34.76
2022-08-07T09:30:02.141Z,34.69
2022-08-07T09:32:04.514Z,34.39
2022-08-07T09:36:04.465Z,34.75
2022-08-07T09:38:25.972Z,34.14
2022-08-07T09:41:16.248Z,34.30
2022-08-07T09:44:30.239Z,34.26
2022-08-07T09:47:50.718Z,34.24
2022-08-07T09:50:30.159Z,34.65
2022-08-07T09:53:08.799Z,34.50
2022-08-07T09:56:11.099Z,34.52
2022-08-07T09:59:01.351Z,34.18
2022-08-07T10:01:53.117Z,34.32
2022-08-07T10:04:45.902Z,33.98
2022-08-07T10:07:39.616Z,34.00
2022-08-07T10:11:16.698Z,34.03
2022-08-07T10:14:13.925Z,34.13
2022-08-07T10:17:14.457Z,33.88
2022-08-07T10:20:30.571Z,33.99
2022-08-07T10:24:06.733Z,34.20
2022-08-07T10:26:53.626Z,34.35
2022-08-07T10:30:13.630Z,34.47
2022-08-07T10:34:06.717Z,34.22
2022-08-07T10:36:31.364Z,34.22
2022-08-07T10:39:41.319Z,34.29
2022-08-07T10:42:46.610Z,33.86
2022-08-07T10:45:37.976Z,34.03
2022-08-07T10:48:53.254Z,33.90
2022-08-07T10:51:39.631Z,33.74
2022-08-07T10:55:26.937Z,33.30
2022-08-07T10:58:15.260Z,33.17
2022-08-07T11:01:12.280Z,32.93
2022-08-07T11:04:16.514Z,33.06
2022-08-07T11:07:15.120Z,32.52
2022-08-07T11:10:08.971Z,32.91
2022-08-07T11:14:43.717Z,32.47
2022-08-07T11:16:29.759Z,31.99
2022-08-07T11:19:14.137Z,31.90
2022-08-07T11:22:19.139Z,31.97
2022-08-07T11:25:49.716Z,31.79
2022-08-07T11:28:32.775Z,31.55
2022-08-07T11:31:47.292Z,31.79
2022-08-07T11:34:31.659Z,31.30
2022-08-07T11:37:11.750Z,31.42
2022-08-07T11:40:08.645Z,31.67
2022-08-07T11:43:08.755Z,30.84
2022-08-07T11:45:55.474Z,31.00
2022-08-07T11:48:29.649Z,30.19
2022-08-07T11:51:44.758Z,30.45
2022-08-07T11:54:14.288Z,30.06
2022-08-07T11:57:17.004Z,30.57
2022-08-07T12:00:12.326Z,30.74
2022-08-07T12:03:45.165Z,30.59
2022-08-07T12:06:57.286Z,30.22
2022-08-07T12:10:09.744Z,29.82
2022-08-07T12:12:53.569Z,29.78
2022-08-07T12:16:05.127Z,29.61
2022-08-07T12:18:34.095Z,29.44
2022-08-07T12:22:36.945Z,29.79
2022-08-07T12:24:43.160Z,29.81
2022-08-07T12:28:04.063Z,29.41
2022-08-07T12:30:23.630Z,29.44
2022-08-07T12:33:23.102Z,29.41
2022-08-07T12:36:02.300Z,29.12
2022-08-07T12:38:43.359Z,28.87
2022-08-07T12:41:50.614Z,28.87
2022-08-07T12:44:26.527Z,28.88
2022-08-07T12:47:21.793Z,29.20
2022-08-07T12:50:39.052Z,29.13
2022-08-07T12:53:22.536Z,29.17
2022-08-07T12:56:26.621Z,28.59
2022-08-07T12:59:04.029Z,28.55
2022-08-07T13:02:10.316Z,28.92
2022-08-07T13:06:02.061Z,28.54
2022-08-07T13:08:42.832Z,29.00
2022-08-07T13:12:00.959Z,28.80
2022-08-07T13:14:57.811Z,28.43
2022-08-07T13:18:26.918Z,28.60
2022-08-07T13:21:51.125Z,28.69
2022-08-07T13:24:25.786Z,28.58
2022-08-07T13:27:02.913Z,28.75
2022-08-07T13:29:42.442Z,28.25
2022-08-07T13:32:37.390Z,28.53
2022-08-07T13:36:01.070Z,28.04
2022-08-07T13:39:11.150Z,28.04
2022-08-07T13:41:54.639Z,28.14
2022-08-07T13:44:34.556Z,28.29
2022-08-07T13:47:21.783Z,27.80
2022-08-07T13:50:33.402Z,28.13
2022-08-07T13:53:03.446Z,28.05
2022-08-07T13:55:38.288Z,27.87
2022-08-07T13:58:37.593Z,27.57
2022-08-07T14:01:22.134Z,27.95
2022-08-07T14:04:06.741Z,27.63
2022-08-07T14:06:50.612Z,27.84
2022-08-07T14:10:08.373Z,27.91
2022-08-07T14:12:58.252Z,27.65
2022-08-07T14:15:38.459Z,27.44
2022-08-07T14:18:28.501Z,27.89
2022-08-07T14:22:02.519Z,27.96
2022-08-07T14:24:20.420Z,27.30
2022-08-07T14:27:02.472Z,27.53
2022-08-07T14:30:05.596Z,27.44
2022-08-07T14:32:48.116Z,27.43
2022-08-07T14:35:44.659Z,27.63
2022-08-07T14:38:26.195Z,27.25
2022-08-07T14:41:12.135Z,27.33
2022-08-07T14:43:59.292Z,27.14
2022-08-07T14:46:32.016Z,27.51
2022-08-07T14:52:03.882Z,26.72
2022-08-07T14:54:35.741Z,26.71
2022-08-07T14:57:18.765Z,26.92
2022-08-07T15:00:05.191Z,26.64
2022-08-07T15:02:34.734Z,27.02
2022-08-07T15:05:02.987Z,27.02
2022-08-07T15:07:51.266Z,26.85
2022-08-07T15:10:26.260Z,26.91
2022-08-07T15:13:00.476Z,26.83
2022-08-07T15:15:38.537Z,26.92
2022-08-07T15:18:14.310Z,26.56
2022-08-07T15:20:59.311Z,26.85
2022-08-07T15:25:14.273Z,26.61
2022-08-07T15:26:28.624Z,26.01
2022-08-07T15:32:00.766Z,26.29
2022-08-07T15:34:50.191Z,26.11
2022-08-07T15:38:04.876Z,26.13
2022-08-07T15:40:34.585Z,25.62
2022-08-07T15:43:33.104Z,24.55
2022-08-07T15:46:32.490Z,22.15
2022-08-07T15:49:13.370Z,18.45
2022-08-07T15:54:39.481Z,14.82
2022-08-07T15:57:40.338Z,13.91
2022-08-07T16:00:04.418Z,12.82
2022-08-07T16:02:39.904Z,11.69
2022-08-07T16:05:15.445Z,10.59
2022-08-07T16:08:31.007Z,10.17
2022-08-07T16:10:36.737Z,10.20
2022-08-07T16:13:39.589Z,9.95
2022-08-07T16:16:48.876Z,9.47
2022-08-07T16:19:43.077Z,8.99
2022-08-07T16:22:36.424Z,9.30
2022-08-07T16:25:52.979Z,9.09
2022-08-07T16:30:07.246Z,8.66
2022-08-07T16:31:51.983Z,8.67
2022-08-07T16:34:24.153Z,8.67
2022-08-07T16:37:02.605Z,8.76
2022-08-07T16:39:58.706Z,8.65
2022-08-07T16:43:05.154Z,8.61
2022-08-07T16:47:06.809Z,8.66
2022-08-07T16:50:28.246Z,8.64
2022-08-07T16:52:52.402Z,8.86
2022-08-07T16:55:43.716Z,8.42
2022-08-07T16:59:11.364Z,8.38
2022-08-07T17:01:41.287Z,8.47
2022-08-07T17:04:24.442Z,8.82
2022-08-07T17:06:57.943Z,8.85
2022-08-07T17:10:08.751Z,9.35
2022-08-07T17:12:44.766Z,9.10
2022-08-07T17:15:15.733Z,8.92
2022-08-07T17:17:49.324Z,8.81
2022-08-07T17:20:30.917Z,9.26
2022-08-07T17:23:16.958Z,9.43
2022-08-07T17:26:02.561Z,9.51
2022-08-07T17:28:35.531Z,9.35
2022-08-07T17:31:19.258Z,10.20
2022-08-07T17:34:34.187Z,11.49
2022-08-07T17:37:14.333Z,11.98
2022-08-07T17:40:03.343Z,13.34
2022-08-07T17:43:15.219Z,14.82
2022-08-07T17:45:55.591Z,15.66
2022-08-07T17:48:34.246Z,16.00
2022-08-07T17:51:11.875Z,16.76
2022-08-07T17:54:29.853Z,16.82
2022-08-07T17:57:18.437Z,17.38
2022-08-07T17:59:50.594Z,18.10
2022-08-07T18:02:23.393Z,18.69
2022-08-07T18:05:28.274Z,18.81
2022-08-07T18:09:00.587Z,19.48
2022-08-07T18:12:06.491Z,19.63
2022-08-07T18:14:44.961Z,19.88
2022-08-07T18:18:45.377Z,20.72
2022-08-07T18:21:07.605Z,20.84
2022-08-07T18:23:43.375Z,21.08
2022-08-07T18:26:16.401Z,21.32
2022-08-07T18:29:04.295Z,21.41
2022-08-07T18:31:50.219Z,21.90
2022-08-07T18:34:33.845Z,21.79
2022-08-07T18:38:58.180Z,21.97
2022-08-07T18:40:43.057Z,22.17
2022-08-07T18:43:48.948Z,22.41
2022-08-07T18:46:26.790Z,22.38
2022-08-07T18:50:30.242Z,22.75
2022-08-07T18:52:33.856Z,22.99
2022-08-07T18:55:41.823Z,23.34
2022-08-07T18:58:25.338Z,24.14
2022-08-07T19:02:19.256Z,24.31
2022-08-07T19:04:32.079Z,25.08
2022-08-07T19:07:08.393Z,24.86
2022-08-07T19:09:56.689Z,25.56
2022-08-07T19:12:53.604Z,25.71
2022-08-07T19:16:05.024Z,26.47
2022-08-07T19:19:00.035Z,26.50
2022-08-07T19:21:47.833Z,27.18
2022-08-07T19:24:44.418Z,27.32
2022-08-07T19:29:00.150Z,27.34
2022-08-07T19:31:05.964Z,28.00
2022-08-07T19:33:16.078Z,28.22
2022-08-07T19:35:50.271Z,28.65
2022-08-07T19:38:17.801Z,28.81
2022-08-07T19:40:50.298Z,28.88
2022-08-07T19:43:44.269Z,28.98
2022-08-07T19:46:14.853Z,29.14
2022-08-07T19:48:53.605Z,29.37
2022-08-07T19:51:24.401Z,30.16
2022-08-07T19:54:34.268Z,30.08
2022-08-07T19:58:02.494Z,30.44
2022-08-07T19:59:52.847Z,30.69
2022-08-07T20:02:30.343Z,30.75
2022-08-07T20:05:00.907Z,30.59
2022-08-07T20:07:46.350Z,30.93
2022-08-07T20:10:35.474Z,30.78
2022-08-07T20:13:07.644Z,30.94
2022-08-07T20:15:49.845Z,30.74
2022-08-07T20:18:19.907Z,31.17
2022-08-07T20:20:46.729Z,31.24
2022-08-07T20:23:41.910Z,31.30
2022-08-07T20:26:09.752Z,31.55
2022-08-07T20:28:39.039Z,31.76
2022-08-07T20:31:21.711Z,31.93
2022-08-07T20:33:56.471Z,32.13
2022-08-07T20:36:25.595Z,32.24
2022-08-07T20:39:00.688Z,32.43
2022-08-07T20:41:40.348Z,32.27
2022-08-07T20:44:12.401Z,32.03
2022-08-07T20:46:42.911Z,32.76
2022-08-07T20:49:59.148Z,32.66
2022-08-07T20:52:00.671Z,32.64
2022-08-07T20:54:29.846Z,32.50
2022-08-07T20:57:04.888Z,32.57
2022-08-07T21:00:06.282Z,32.82
2022-08-07T21:02:41.112Z,32.86
2022-08-07T21:05:25.763Z,33.12
2022-08-07T21:08:20.672Z,33.05
2022-08-07T21:11:04.841Z,33.35
2022-08-07T21:13:43.815Z,33.47
2022-08-07T21:16:38.079Z,33.39
2022-08-07T21:19:32.370Z,33.59
2022-08-07T21:22:16.635Z,33.77
2022-08-07T21:25:20.642Z,34.00
2022-08-07T21:28:02.550Z,34.07
2022-08-07T21:30:38.411Z,34.32
2022-08-07T21:33:41.147Z,34.27
2022-08-07T21:36:31.159Z,34.88
2022-08-07T21:39:46.030Z,34.65
2022-08-07T21:42:42.417Z,34.62
2022-08-07T21:46:07.959Z,34.96
2022-08-07T21:48:32.521Z,35.00
2022-08-07T21:51:05.172Z,35.20
2022-08-07T21:53:46.491Z,35.24
2022-08-07T21:56:36.483Z,35.43
2022-08-07T21:59:25.980Z,35.30
2022-08-07T22:02:10.949Z,35.27
2022-08-07T22:04:51.184Z,35.63
2022-08-07T22:07:48.808Z,35.67
2022-08-07T22:10:24.666Z,35.62
2022-08-07T22:12:58.265Z,35.23
2022-08-07T22:16:41.891Z,35.14
2022-08-07T22:18:28.481Z,35.19
2022-08-07T22:21:01.427Z,35.08
2022-08-07T22:23:33.447Z,35.33
2022-08-07T22:26:16.842Z,35.34
2022-08-07T22:28:55.558Z,35.32
2022-08-07T22:32:00.233Z,35.20
2022-08-07T22:34:53.497Z,35.41
2022-08-07T22:37:23.448Z,35.57
2022-08-07T22:40:05.101Z,35.60
2022-08-07T22:42:34.258Z,35.73
2022-08-07T22:45:04.166Z,35.84
2022-08-07T22:47:56.658Z,35.93
2022-08-07T22:50:33.214Z,36.15
2022-08-07T22:54:05.352Z,36.22
2022-08-07T22:56:16.603Z,36.06
2022-08-07T22:59:14.323Z,36.34
2022-08-07T23:02:22.784Z,36.14
2022-08-07T23:06:09.633Z,36.44
2022-08-07T23:08:24.029Z,36.57
2022-08-07T23:11:12.935Z,36.84
2022-08-07T23:14:22.730Z,36.97
2022-08-07T23:17:15.597Z,37.26
2022-08-07T23:20:51.280Z,37.39
2022-08-07T23:24:06.427Z,37.40
2022-08-07T23:27:10.801Z,37.31
2022-08-07T23:30:39.500Z,37.16
2022-08-07T23:34:23.709Z,37.38
2022-08-07T23:36:32.053Z,37.46
2022-08-07T23:39:21.976Z,37.32
2022-08-07T23:42:04.361Z,37.66
2022-08-07T23:44:54.075Z,37.60
2022-08-07T23:47:47.898Z,37.52
2022-08-07T23:50:17.658Z,37.62
2022-08-07T23:53:05.211Z,37.44
2022-08-07T23:56:02.429Z,37.78
2022-08-07T23:58:54.641Z,37.66
